sensor_id;sensor_type;location;lat;lon;timestamp;temperature;humidity
47022;DHT22;32779;52.264;6.154;2023-08-01T00:00:29;16.70;99.90
47022;DHT22;32779;52.264;6.154;2023-08-01T00:02:54;16.70;99.90
47022;DHT22;32779;52.264;6.154;2023-08-01T00:05:20;16.70;99.90
47022;DHT22;32779;52.264;6.154;2023-08-01T00:07:46;16.70;99.90
47022;DHT22;32779;52.264;6.154;2023-08-01T00:10:11;16.70;99.90
47022;DHT22;32779;52.264;6.154;2023-08-01T00:12:37;16.70;99.90
47022;DHT22;32779;52.264;6.154;2023-08-01T00:15:02;16.70;99.90
47022;DHT22;32779;52.264;6.154;2023-08-01T00:17:28;16.70;99.90
47022;DHT22;32779;52.264;6.154;2023-08-01T00:19:54;16.70;99.90
47022;DHT22;32779;52.264;6.154;2023-08-01T00:22:20;16.60;99.90
47022;DHT22;32779;52.264;6.154;2023-08-01T00:24:46;16.60;99.90
47022;DHT22;32779;52.264;6.154;2023-08-01T00:27:13;16.60;99.90
47022;DHT22;32779;52.264;6.154;2023-08-01T00:29:38;16.60;99.90
47022;DHT22;32779;52.264;6.154;2023-08-01T00:32:04;16.60;99.90
47022;DHT22;32779;52.264;6.154;2023-08-01T00:34:30;16.60;99.90
47022;DHT22;32779;52.264;6.154;2023-08-01T00:36:56;16.50;99.90
47022;DHT22;32779;52.264;6.154;2023-08-01T00:39:21;16.50;99.90
47022;DHT22;32779;52.264;6.154;2023-08-01T00:41:47;16.50;99.90
47022;DHT22;32779;52.264;6.154;2023-08-01T00:44:12;16.50;99.90
47022;DHT22;32779;52.264;6.154;2023-08-01T00:46:38;16.50;99.90
47022;DHT22;32779;52.264;6.154;2023-08-01T00:49:03;16.50;99.90
47022;DHT22;32779;52.264;6.154;2023-08-01T00:51:29;16.50;99.90
47022;DHT22;32779;52.264;6.154;2023-08-01T00:53:55;16.50;99.90
47022;DHT22;32779;52.264;6.154;2023-08-01T00:56:21;16.50;99.90
47022;DHT22;32779;52.264;6.154;2023-08-01T00:58:47;16.50;99.90
47022;DHT22;32779;52.264;6.154;2023-08-01T01:01:12;16.40;99.90
47022;DHT22;32779;52.264;6.154;2023-08-01T01:03:38;16.40;99.90
47022;DHT22;32779;52.264;6.154;2023-08-01T01:06:17;16.40;99.90
47022;DHT22;32779;52.264;6.154;2023-08-01T01:08:45;16.40;99.90
47022;DHT22;32779;52.264;6.154;2023-08-01T01:11:11;16.30;99.90
47022;DHT22;32779;52.264;6.154;2023-08-01T01:13:36;16.30;99.90
47022;DHT22;32779;52.264;6.154;2023-08-01T01:16:02;16.30;99.90
47022;DHT22;32779;52.264;6.154;2023-08-01T01:18:28;16.30;99.90
47022;DHT22;32779;52.264;6.154;2023-08-01T01:20:54;16.30;99.90
47022;DHT22;32779;52.264;6.154;2023-08-01T01:23:19;16.30;99.90
47022;DHT22;32779;52.264;6.154;2023-08-01T01:25:45;16.30;99.90
47022;DHT22;32779;52.264;6.154;2023-08-01T01:28:11;16.30;99.90
47022;DHT22;32779;52.264;6.154;2023-08-01T01:30:38;16.20;99.90
47022;DHT22;32779;52.264;6.154;2023-08-01T01:33:03;16.20;99.90
47022;DHT22;32779;52.264;6.154;2023-08-01T01:35:30;16.20;99.90
47022;DHT22;32779;52.264;6.154;2023-08-01T01:37:58;16.10;99.90
47022;DHT22;32779;52.264;6.154;2023-08-01T01:40:24;16.10;99.90
47022;DHT22;32779;52.264;6.154;2023-08-01T01:42:49;16.10;99.90
47022;DHT22;32779;52.264;6.154;2023-08-01T01:45:15;16.10;99.90
47022;DHT22;32779;52.264;6.154;2023-08-01T01:47:40;16.00;99.90
47022;DHT22;32779;52.264;6.154;2023-08-01T01:50:06;16.00;99.90
47022;DHT22;32779;52.264;6.154;2023-08-01T01:52:31;15.90;99.90
47022;DHT22;32779;52.264;6.154;2023-08-01T01:54:58;15.90;99.90
47022;DHT22;32779;52.264;6.154;2023-08-01T01:57:23;15.90;99.90
47022;DHT22;32779;52.264;6.154;2023-08-01T01:59:49;15.90;99.90
47022;DHT22;32779;52.264;6.154;2023-08-01T02:02:14;15.90;99.90
47022;DHT22;32779;52.264;6.154;2023-08-01T02:04:40;15.90;99.90
47022;DHT22;32779;52.264;6.154;2023-08-01T02:07:05;15.90;99.90
47022;DHT22;32779;52.264;6.154;2023-08-01T02:09:31;15.80;99.90
47022;DHT22;32779;52.264;6.154;2023-08-01T02:11:56;15.80;99.90
47022;DHT22;32779;52.264;6.154;2023-08-01T02:14:22;15.80;99.90
47022;DHT22;32779;52.264;6.154;2023-08-01T02:16:50;15.80;99.90
47022;DHT22;32779;52.264;6.154;2023-08-01T02:19:15;15.70;99.90
47022;DHT22;32779;52.264;6.154;2023-08-01T02:21:40;15.70;99.90
47022;DHT22;32779;52.264;6.154;2023-08-01T02:24:06;15.70;99.90
47022;DHT22;32779;52.264;6.154;2023-08-01T02:26:31;15.70;99.90
47022;DHT22;32779;52.264;6.154;2023-08-01T02:28:57;15.70;99.90
47022;DHT22;32779;52.264;6.154;2023-08-01T02:31:22;15.60;99.90
47022;DHT22;32779;52.264;6.154;2023-08-01T02:33:48;15.60;99.90
47022;DHT22;32779;52.264;6.154;2023-08-01T02:36:14;15.60;99.90
47022;DHT22;32779;52.264;6.154;2023-08-01T02:38:41;15.50;99.90
47022;DHT22;32779;52.264;6.154;2023-08-01T02:41:07;15.50;99.90
47022;DHT22;32779;52.264;6.154;2023-08-01T02:43:32;15.50;99.90
47022;DHT22;32779;52.264;6.154;2023-08-01T02:46:00;15.50;99.90
47022;DHT22;32779;52.264;6.154;2023-08-01T02:48:26;15.50;99.90
47022;DHT22;32779;52.264;6.154;2023-08-01T02:50:52;15.50;99.90
47022;DHT22;32779;52.264;6.154;2023-08-01T02:53:17;15.50;99.90
47022;DHT22;32779;52.264;6.154;2023-08-01T02:55:43;15.50;99.90
47022;DHT22;32779;52.264;6.154;2023-08-01T02:58:11;15.40;99.90
47022;DHT22;32779;52.264;6.154;2023-08-01T03:00:37;15.40;99.90
47022;DHT22;32779;52.264;6.154;2023-08-01T03:03:03;15.40;99.90
47022;DHT22;32779;52.264;6.154;2023-08-01T03:05:28;15.40;99.90
47022;DHT22;32779;52.264;6.154;2023-08-01T03:07:54;15.40;99.90
47022;DHT22;32779;52.264;6.154;2023-08-01T03:10:20;15.30;99.90
47022;DHT22;32779;52.264;6.154;2023-08-01T03:12:45;15.30;99.90
47022;DHT22;32779;52.264;6.154;2023-08-01T03:15:11;15.30;99.90
47022;DHT22;32779;52.264;6.154;2023-08-01T03:17:36;15.30;99.90
47022;DHT22;32779;52.264;6.154;2023-08-01T03:20:02;15.30;99.90
47022;DHT22;32779;52.264;6.154;2023-08-01T03:22:28;15.30;99.90
47022;DHT22;32779;52.264;6.154;2023-08-01T03:24:54;15.30;99.90
47022;DHT22;32779;52.264;6.154;2023-08-01T03:27:19;15.30;99.90
47022;DHT22;32779;52.264;6.154;2023-08-01T03:29:45;15.30;99.90
47022;DHT22;32779;52.264;6.154;2023-08-01T03:32:10;15.30;99.90
47022;DHT22;32779;52.264;6.154;2023-08-01T03:34:36;15.30;99.90
47022;DHT22;32779;52.264;6.154;2023-08-01T03:37:02;15.20;99.90
47022;DHT22;32779;52.264;6.154;2023-08-01T03:39:27;15.30;99.90
47022;DHT22;32779;52.264;6.154;2023-08-01T03:41:53;15.30;99.90
47022;DHT22;32779;52.264;6.154;2023-08-01T03:44:18;15.30;99.90
47022;DHT22;32779;52.264;6.154;2023-08-01T03:46:44;15.30;99.90
47022;DHT22;32779;52.264;6.154;2023-08-01T03:49:09;15.40;99.90
47022;DHT22;32779;52.264;6.154;2023-08-01T03:51:36;15.40;99.90
47022;DHT22;32779;52.264;6.154;2023-08-01T03:54:02;15.40;99.90
47022;DHT22;32779;52.264;6.154;2023-08-01T03:56:27;15.40;99.90
47022;DHT22;32779;52.264;6.154;2023-08-01T03:58:53;15.50;99.90
47022;DHT22;32779;52.264;6.154;2023-08-01T04:01:18;15.50;99.90
47022;DHT22;32779;52.264;6.154;2023-08-01T04:03:44;15.50;99.90
47022;DHT22;32779;52.264;6.154;2023-08-01T04:06:10;15.50;99.90
47022;DHT22;32779;52.264;6.154;2023-08-01T04:08:40;15.50;99.90
47022;DHT22;32779;52.264;6.154;2023-08-01T04:11:05;15.50;99.90
47022;DHT22;32779;52.264;6.154;2023-08-01T04:13:31;15.50;99.90
47022;DHT22;32779;52.264;6.154;2023-08-01T04:15:57;15.50;99.90
47022;DHT22;32779;52.264;6.154;2023-08-01T04:18:22;15.50;99.90
47022;DHT22;32779;52.264;6.154;2023-08-01T04:20:48;15.50;99.90
47022;DHT22;32779;52.264;6.154;2023-08-01T04:23:13;15.50;99.90
47022;DHT22;32779;52.264;6.154;2023-08-01T04:25:40;15.60;99.90
47022;DHT22;32779;52.264;6.154;2023-08-01T04:28:05;15.60;99.90
47022;DHT22;32779;52.264;6.154;2023-08-01T04:30:31;15.60;99.90
47022;DHT22;32779;52.264;6.154;2023-08-01T04:32:58;15.60;99.90
47022;DHT22;32779;52.264;6.154;2023-08-01T04:35:24;15.60;99.90
47022;DHT22;32779;52.264;6.154;2023-08-01T04:37:49;15.60;99.90
47022;DHT22;32779;52.264;6.154;2023-08-01T04:40:14;15.60;99.90
47022;DHT22;32779;52.264;6.154;2023-08-01T04:42:40;15.60;99.90
47022;DHT22;32779;52.264;6.154;2023-08-01T04:45:05;15.60;99.90
47022;DHT22;32779;52.264;6.154;2023-08-01T04:47:32;15.60;99.90
47022;DHT22;32779;52.264;6.154;2023-08-01T04:49:57;15.60;99.90
47022;DHT22;32779;52.264;6.154;2023-08-01T04:52:23;15.60;99.90
47022;DHT22;32779;52.264;6.154;2023-08-01T04:54:48;15.60;99.90
47022;DHT22;32779;52.264;6.154;2023-08-01T04:57:14;15.60;99.90
47022;DHT22;32779;52.264;6.154;2023-08-01T04:59:39;15.70;99.90
47022;DHT22;32779;52.264;6.154;2023-08-01T05:02:05;15.70;99.90
47022;DHT22;32779;52.264;6.154;2023-08-01T05:04:30;15.70;99.90
47022;DHT22;32779;52.264;6.154;2023-08-01T05:06:56;15.70;99.90
47022;DHT22;32779;52.264;6.154;2023-08-01T05:09:21;15.70;99.90
47022;DHT22;32779;52.264;6.154;2023-08-01T05:11:47;15.70;99.90
47022;DHT22;32779;52.264;6.154;2023-08-01T05:14:12;15.70;99.90
47022;DHT22;32779;52.264;6.154;2023-08-01T05:16:38;15.70;99.90
47022;DHT22;32779;52.264;6.154;2023-08-01T05:19:03;15.70;99.90
47022;DHT22;32779;52.264;6.154;2023-08-01T05:21:29;15.70;99.90
47022;DHT22;32779;52.264;6.154;2023-08-01T05:23:54;15.70;99.90
47022;DHT22;32779;52.264;6.154;2023-08-01T05:26:20;15.70;99.90
47022;DHT22;32779;52.264;6.154;2023-08-01T05:28:45;15.70;99.90
47022;DHT22;32779;52.264;6.154;2023-08-01T05:31:11;15.80;99.90
47022;DHT22;32779;52.264;6.154;2023-08-01T05:33:36;15.80;99.90
47022;DHT22;32779;52.264;6.154;2023-08-01T05:36:02;15.80;99.90
47022;DHT22;32779;52.264;6.154;2023-08-01T05:38:27;15.90;99.90
47022;DHT22;32779;52.264;6.154;2023-08-01T05:40:53;16.00;99.90
47022;DHT22;32779;52.264;6.154;2023-08-01T05:43:18;16.00;99.90
47022;DHT22;32779;52.264;6.154;2023-08-01T05:45:44;16.00;99.90
47022;DHT22;32779;52.264;6.154;2023-08-01T05:48:09;16.10;99.90
47022;DHT22;32779;52.264;6.154;2023-08-01T05:50:35;16.20;99.90
47022;DHT22;32779;52.264;6.154;2023-08-01T05:53:01;16.20;99.90
47022;DHT22;32779;52.264;6.154;2023-08-01T05:55:27;16.20;99.90
47022;DHT22;32779;52.264;6.154;2023-08-01T05:57:52;16.30;99.90
47022;DHT22;32779;52.264;6.154;2023-08-01T06:00:18;16.20;99.90
47022;DHT22;32779;52.264;6.154;2023-08-01T06:02:46;16.20;99.90
47022;DHT22;32779;52.264;6.154;2023-08-01T06:05:11;16.30;99.90
47022;DHT22;32779;52.264;6.154;2023-08-01T06:07:36;16.30;99.90
47022;DHT22;32779;52.264;6.154;2023-08-01T06:10:02;16.30;99.90
47022;DHT22;32779;52.264;6.154;2023-08-01T06:12:29;16.30;99.90
47022;DHT22;32779;52.264;6.154;2023-08-01T06:14:55;16.30;99.90
47022;DHT22;32779;52.264;6.154;2023-08-01T06:17:20;16.30;99.90
47022;DHT22;32779;52.264;6.154;2023-08-01T06:19:46;16.30;99.90
47022;DHT22;32779;52.264;6.154;2023-08-01T06:22:11;16.30;99.90
47022;DHT22;32779;52.264;6.154;2023-08-01T06:24:37;16.30;99.90
47022;DHT22;32779;52.264;6.154;2023-08-01T06:27:02;16.30;99.90
47022;DHT22;32779;52.264;6.154;2023-08-01T06:29:28;16.30;99.90
47022;DHT22;32779;52.264;6.154;2023-08-01T06:31:53;16.30;99.90
47022;DHT22;32779;52.264;6.154;2023-08-01T06:34:19;16.40;99.90
47022;DHT22;32779;52.264;6.154;2023-08-01T06:36:45;16.40;99.90
47022;DHT22;32779;52.264;6.154;2023-08-01T06:39:10;16.50;99.90
47022;DHT22;32779;52.264;6.154;2023-08-01T06:41:36;16.50;99.90
47022;DHT22;32779;52.264;6.154;2023-08-01T06:44:02;16.60;99.90
47022;DHT22;32779;52.264;6.154;2023-08-01T06:46:27;16.60;99.90
47022;DHT22;32779;52.264;6.154;2023-08-01T06:48:53;16.60;99.90
47022;DHT22;32779;52.264;6.154;2023-08-01T06:51:18;16.70;99.90
47022;DHT22;32779;52.264;6.154;2023-08-01T06:53:44;16.70;99.90
47022;DHT22;32779;52.264;6.154;2023-08-01T06:56:09;16.80;99.90
47022;DHT22;32779;52.264;6.154;2023-08-01T06:58:35;16.90;99.90
47022;DHT22;32779;52.264;6.154;2023-08-01T07:01:00;17.10;99.90
47022;DHT22;32779;52.264;6.154;2023-08-01T07:03:26;17.20;99.90
47022;DHT22;32779;52.264;6.154;2023-08-01T07:05:51;17.40;99.90
47022;DHT22;32779;52.264;6.154;2023-08-01T07:08:17;17.50;99.90
47022;DHT22;32779;52.264;6.154;2023-08-01T07:10:42;17.60;99.90
47022;DHT22;32779;52.264;6.154;2023-08-01T07:13:08;17.60;99.90
47022;DHT22;32779;52.264;6.154;2023-08-01T07:15:33;17.60;99.90
47022;DHT22;32779;52.264;6.154;2023-08-01T07:17:59;17.60;99.90
47022;DHT22;32779;52.264;6.154;2023-08-01T07:20:24;17.60;99.90
47022;DHT22;32779;52.264;6.154;2023-08-01T07:22:50;17.60;99.90
47022;DHT22;32779;52.264;6.154;2023-08-01T07:25:15;17.50;99.90
47022;DHT22;32779;52.264;6.154;2023-08-01T07:27:42;17.50;99.90
47022;DHT22;32779;52.264;6.154;2023-08-01T07:30:07;17.50;99.90
47022;DHT22;32779;52.264;6.154;2023-08-01T07:32:33;17.50;99.90
47022;DHT22;32779;52.264;6.154;2023-08-01T07:34:58;17.50;99.90
47022;DHT22;32779;52.264;6.154;2023-08-01T07:37:24;17.50;99.90
47022;DHT22;32779;52.264;6.154;2023-08-01T07:39:49;17.50;99.90
47022;DHT22;32779;52.264;6.154;2023-08-01T07:42:15;17.60;99.90
47022;DHT22;32779;52.264;6.154;2023-08-01T07:44:40;17.50;99.90
47022;DHT22;32779;52.264;6.154;2023-08-01T07:47:06;17.50;99.90
47022;DHT22;32779;52.264;6.154;2023-08-01T07:49:31;17.60;99.90
47022;DHT22;32779;52.264;6.154;2023-08-01T07:51:57;17.70;99.90
47022;DHT22;32779;52.264;6.154;2023-08-01T07:54:23;17.80;99.90
47022;DHT22;32779;52.264;6.154;2023-08-01T07:56:49;18.10;99.90
47022;DHT22;32779;52.264;6.154;2023-08-01T07:59:14;18.30;99.90
47022;DHT22;32779;52.264;6.154;2023-08-01T08:01:40;18.40;99.90
47022;DHT22;32779;52.264;6.154;2023-08-01T08:04:05;18.70;99.90
47022;DHT22;32779;52.264;6.154;2023-08-01T08:06:31;18.80;99.90
47022;DHT22;32779;52.264;6.154;2023-08-01T08:08:56;18.90;99.90
47022;DHT22;32779;52.264;6.154;2023-08-01T08:11:22;19.20;99.90
47022;DHT22;32779;52.264;6.154;2023-08-01T08:13:48;19.40;99.90
47022;DHT22;32779;52.264;6.154;2023-08-01T08:16:14;19.50;99.90
47022;DHT22;32779;52.264;6.154;2023-08-01T08:18:41;19.40;99.90
47022;DHT22;32779;52.264;6.154;2023-08-01T08:21:06;19.40;99.90
47022;DHT22;32779;52.264;6.154;2023-08-01T08:23:32;19.40;99.90
47022;DHT22;32779;52.264;6.154;2023-08-01T08:25:57;19.30;99.90
47022;DHT22;32779;52.264;6.154;2023-08-01T08:28:29;19.00;99.90
47022;DHT22;32779;52.264;6.154;2023-08-01T08:30:56;18.80;99.90
47022;DHT22;32779;52.264;6.154;2023-08-01T08:33:21;18.70;99.90
47022;DHT22;32779;52.264;6.154;2023-08-01T08:35:47;18.70;99.90
47022;DHT22;32779;52.264;6.154;2023-08-01T08:38:12;18.80;99.90
47022;DHT22;32779;52.264;6.154;2023-08-01T08:40:40;19.00;99.90
47022;DHT22;32779;52.264;6.154;2023-08-01T08:43:06;19.10;99.90
47022;DHT22;32779;52.264;6.154;2023-08-01T08:45:33;19.10;99.90
47022;DHT22;32779;52.264;6.154;2023-08-01T08:48:00;19.20;99.90
47022;DHT22;32779;52.264;6.154;2023-08-01T08:50:26;19.50;99.90
47022;DHT22;32779;52.264;6.154;2023-08-01T08:52:52;19.80;99.90
47022;DHT22;32779;52.264;6.154;2023-08-01T08:55:19;20.00;99.90
47022;DHT22;32779;52.264;6.154;2023-08-01T08:57:49;20.10;99.90
47022;DHT22;32779;52.264;6.154;2023-08-01T09:00:16;20.30;99.90
47022;DHT22;32779;52.264;6.154;2023-08-01T09:02:42;20.20;99.90
47022;DHT22;32779;52.264;6.154;2023-08-01T09:05:08;20.10;99.90
47022;DHT22;32779;52.264;6.154;2023-08-01T09:07:33;20.10;99.90
47022;DHT22;32779;52.264;6.154;2023-08-01T09:10:01;20.00;99.90
47022;DHT22;32779;52.264;6.154;2023-08-01T09:12:27;19.70;99.90
47022;DHT22;32779;52.264;6.154;2023-08-01T09:14:52;19.70;99.90
47022;DHT22;32779;52.264;6.154;2023-08-01T09:17:21;19.60;99.90
47022;DHT22;32779;52.264;6.154;2023-08-01T09:19:47;19.40;99.90
47022;DHT22;32779;52.264;6.154;2023-08-01T09:22:13;19.30;99.90
47022;DHT22;32779;52.264;6.154;2023-08-01T09:24:38;19.40;99.90
47022;DHT22;32779;52.264;6.154;2023-08-01T09:27:04;19.60;99.90
47022;DHT22;32779;52.264;6.154;2023-08-01T09:29:30;19.60;99.90
47022;DHT22;32779;52.264;6.154;2023-08-01T09:31:57;19.70;99.90
47022;DHT22;32779;52.264;6.154;2023-08-01T09:34:26;19.80;99.90
47022;DHT22;32779;52.264;6.154;2023-08-01T09:36:58;19.90;99.90
47022;DHT22;32779;52.264;6.154;2023-08-01T09:39:24;19.90;99.90
47022;DHT22;32779;52.264;6.154;2023-08-01T09:42:00;19.80;99.90
47022;DHT22;32779;52.264;6.154;2023-08-01T09:44:27;19.80;99.90
47022;DHT22;32779;52.264;6.154;2023-08-01T09:46:56;19.80;99.90
47022;DHT22;32779;52.264;6.154;2023-08-01T09:49:22;19.90;99.90
47022;DHT22;32779;52.264;6.154;2023-08-01T09:51:48;20.00;99.90
47022;DHT22;32779;52.264;6.154;2023-08-01T09:54:14;20.20;99.90
47022;DHT22;32779;52.264;6.154;2023-08-01T09:56:40;20.40;99.90
47022;DHT22;32779;52.264;6.154;2023-08-01T09:59:09;20.50;99.90
47022;DHT22;32779;52.264;6.154;2023-08-01T10:01:35;20.50;99.90
47022;DHT22;32779;52.264;6.154;2023-08-01T10:04:01;20.50;99.90
47022;DHT22;32779;52.264;6.154;2023-08-01T10:06:32;20.80;99.90
47022;DHT22;32779;52.264;6.154;2023-08-01T10:08:58;20.90;99.90
47022;DHT22;32779;52.264;6.154;2023-08-01T10:11:24;20.80;99.90
47022;DHT22;32779;52.264;6.154;2023-08-01T10:13:51;20.80;99.90
47022;DHT22;32779;52.264;6.154;2023-08-01T10:16:17;20.70;99.90
47022;DHT22;32779;52.264;6.154;2023-08-01T10:18:43;20.80;99.90
47022;DHT22;32779;52.264;6.154;2023-08-01T10:21:09;20.80;99.90
47022;DHT22;32779;52.264;6.154;2023-08-01T10:23:36;20.90;99.90
47022;DHT22;32779;52.264;6.154;2023-08-01T10:26:03;20.80;99.90
47022;DHT22;32779;52.264;6.154;2023-08-01T10:28:32;20.60;99.90
47022;DHT22;32779;52.264;6.154;2023-08-01T10:31:14;20.20;99.90
47022;DHT22;32779;52.264;6.154;2023-08-01T10:33:41;19.90;99.90
47022;DHT22;32779;52.264;6.154;2023-08-01T10:36:22;19.70;99.90
47022;DHT22;32779;52.264;6.154;2023-08-01T10:38:49;19.50;99.90
47022;DHT22;32779;52.264;6.154;2023-08-01T10:41:49;19.20;99.90
47022;DHT22;32779;52.264;6.154;2023-08-01T10:44:13;19.20;99.90
47022;DHT22;32779;52.264;6.154;2023-08-01T10:46:52;19.20;99.90
47022;DHT22;32779;52.264;6.154;2023-08-01T10:49:18;19.20;99.90
47022;DHT22;32779;52.264;6.154;2023-08-01T10:51:44;19.20;99.90
47022;DHT22;32779;52.264;6.154;2023-08-01T10:54:28;19.30;99.90
47022;DHT22;32779;52.264;6.154;2023-08-01T10:56:55;19.50;99.90
47022;DHT22;32779;52.264;6.154;2023-08-01T10:59:21;19.70;99.90
47022;DHT22;32779;52.264;6.154;2023-08-01T11:01:50;19.80;99.90
47022;DHT22;32779;52.264;6.154;2023-08-01T11:04:20;19.90;99.90
47022;DHT22;32779;52.264;6.154;2023-08-01T11:06:46;19.90;99.90
47022;DHT22;32779;52.264;6.154;2023-08-01T11:09:46;19.90;99.90
47022;DHT22;32779;52.264;6.154;2023-08-01T11:12:04;19.80;99.90
47022;DHT22;32779;52.264;6.154;2023-08-01T11:14:30;19.80;99.90
47022;DHT22;32779;52.264;6.154;2023-08-01T11:16:55;19.80;99.90
47022;DHT22;32779;52.264;6.154;2023-08-01T11:19:25;19.80;99.90
47022;DHT22;32779;52.264;6.154;2023-08-01T11:21:51;19.80;99.90
47022;DHT22;32779;52.264;6.154;2023-08-01T11:24:24;19.70;99.90
47022;DHT22;32779;52.264;6.154;2023-08-01T11:26:50;19.70;99.90
47022;DHT22;32779;52.264;6.154;2023-08-01T11:29:17;19.80;99.90
47022;DHT22;32779;52.264;6.154;2023-08-01T11:31:55;19.90;99.90
47022;DHT22;32779;52.264;6.154;2023-08-01T11:34:23;20.10;99.90
47022;DHT22;32779;52.264;6.154;2023-08-01T11:36:49;20.10;99.90
47022;DHT22;32779;52.264;6.154;2023-08-01T11:39:15;20.00;99.90
47022;DHT22;32779;52.264;6.154;2023-08-01T11:41:41;19.80;99.90
47022;DHT22;32779;52.264;6.154;2023-08-01T11:44:07;19.70;99.90
47022;DHT22;32779;52.264;6.154;2023-08-01T11:46:34;19.60;99.90
47022;DHT22;32779;52.264;6.154;2023-08-01T11:49:01;19.60;99.90
47022;DHT22;32779;52.264;6.154;2023-08-01T11:51:27;19.50;99.90
47022;DHT22;32779;52.264;6.154;2023-08-01T11:53:59;19.50;99.90
47022;DHT22;32779;52.264;6.154;2023-08-01T11:56:25;19.70;99.90
47022;DHT22;32779;52.264;6.154;2023-08-01T11:58:51;19.80;99.90
47022;DHT22;32779;52.264;6.154;2023-08-01T12:01:16;19.90;99.90
47022;DHT22;32779;52.264;6.154;2023-08-01T12:06:08;20.20;99.90
47022;DHT22;32779;52.264;6.154;2023-08-01T12:08:33;20.30;99.90
47022;DHT22;32779;52.264;6.154;2023-08-01T12:10:59;20.50;99.90
47022;DHT22;32779;52.264;6.154;2023-08-01T12:13:25;20.70;99.90
47022;DHT22;32779;52.264;6.154;2023-08-01T12:15:51;20.70;99.90
47022;DHT22;32779;52.264;6.154;2023-08-01T12:18:24;20.70;99.90
47022;DHT22;32779;52.264;6.154;2023-08-01T12:20:50;20.80;99.90
47022;DHT22;32779;52.264;6.154;2023-08-01T12:23:16;20.80;99.90
47022;DHT22;32779;52.264;6.154;2023-08-01T12:25:41;20.80;99.90
47022;DHT22;32779;52.264;6.154;2023-08-01T12:28:07;20.90;99.90
47022;DHT22;32779;52.264;6.154;2023-08-01T12:30:32;21.00;99.90
47022;DHT22;32779;52.264;6.154;2023-08-01T12:32:58;21.20;99.90
47022;DHT22;32779;52.264;6.154;2023-08-01T12:35:23;21.30;99.90
47022;DHT22;32779;52.264;6.154;2023-08-01T12:37:49;21.10;99.90
47022;DHT22;32779;52.264;6.154;2023-08-01T12:40:17;20.90;99.90
47022;DHT22;32779;52.264;6.154;2023-08-01T12:42:42;20.80;99.90
47022;DHT22;32779;52.264;6.154;2023-08-01T12:45:08;20.80;99.90
47022;DHT22;32779;52.264;6.154;2023-08-01T12:47:33;20.70;99.90
47022;DHT22;32779;52.264;6.154;2023-08-01T12:49:59;20.70;99.90
47022;DHT22;32779;52.264;6.154;2023-08-01T12:52:25;20.60;99.90
47022;DHT22;32779;52.264;6.154;2023-08-01T12:54:50;20.50;99.90
47022;DHT22;32779;52.264;6.154;2023-08-01T12:57:16;20.30;99.90
47022;DHT22;32779;52.264;6.154;2023-08-01T12:59:41;20.20;99.90
47022;DHT22;32779;52.264;6.154;2023-08-01T13:02:07;20.10;99.90
47022;DHT22;32779;52.264;6.154;2023-08-01T13:04:36;20.10;99.90
47022;DHT22;32779;52.264;6.154;2023-08-01T13:07:02;20.20;99.90
47022;DHT22;32779;52.264;6.154;2023-08-01T13:09:27;20.30;99.90
47022;DHT22;32779;52.264;6.154;2023-08-01T13:11:53;20.40;99.90
47022;DHT22;32779;52.264;6.154;2023-08-01T13:14:18;20.50;99.90
47022;DHT22;32779;52.264;6.154;2023-08-01T13:16:44;20.50;99.90
47022;DHT22;32779;52.264;6.154;2023-08-01T13:19:09;20.60;99.90
47022;DHT22;32779;52.264;6.154;2023-08-01T13:21:35;20.60;99.90
47022;DHT22;32779;52.264;6.154;2023-08-01T13:24:01;20.40;99.90
47022;DHT22;32779;52.264;6.154;2023-08-01T13:26:30;20.40;99.90
47022;DHT22;32779;52.264;6.154;2023-08-01T13:28:56;20.50;99.90
47022;DHT22;32779;52.264;6.154;2023-08-01T13:31:22;20.60;99.90
47022;DHT22;32779;52.264;6.154;2023-08-01T13:33:47;20.80;99.90
47022;DHT22;32779;52.264;6.154;2023-08-01T13:36:13;21.00;99.90
47022;DHT22;32779;52.264;6.154;2023-08-01T13:38:38;21.00;99.90
47022;DHT22;32779;52.264;6.154;2023-08-01T13:41:04;20.90;99.90
47022;DHT22;32779;52.264;6.154;2023-08-01T13:43:29;20.90;99.90
47022;DHT22;32779;52.264;6.154;2023-08-01T13:45:55;20.90;99.90
47022;DHT22;32779;52.264;6.154;2023-08-01T13:48:20;20.80;99.90
47022;DHT22;32779;52.264;6.154;2023-08-01T13:50:46;20.70;99.90
47022;DHT22;32779;52.264;6.154;2023-08-01T13:53:12;20.70;99.90
47022;DHT22;32779;52.264;6.154;2023-08-01T13:55:39;20.50;99.90
47022;DHT22;32779;52.264;6.154;2023-08-01T13:58:05;20.40;99.90
47022;DHT22;32779;52.264;6.154;2023-08-01T14:00:31;20.40;99.90
47022;DHT22;32779;52.264;6.154;2023-08-01T14:02:57;20.30;99.90
47022;DHT22;32779;52.264;6.154;2023-08-01T14:05:25;20.20;99.90
47022;DHT22;32779;52.264;6.154;2023-08-01T14:07:52;20.00;99.90
47022;DHT22;32779;52.264;6.154;2023-08-01T14:10:17;19.90;99.90
47022;DHT22;32779;52.264;6.154;2023-08-01T14:12:43;19.70;99.90
47022;DHT22;32779;52.264;6.154;2023-08-01T14:15:09;19.60;99.90
47022;DHT22;32779;52.264;6.154;2023-08-01T14:17:34;19.50;99.90
47022;DHT22;32779;52.264;6.154;2023-08-01T14:20:00;19.40;99.90
47022;DHT22;32779;52.264;6.154;2023-08-01T14:22:25;19.40;99.90
47022;DHT22;32779;52.264;6.154;2023-08-01T14:24:51;19.30;99.90
47022;DHT22;32779;52.264;6.154;2023-08-01T14:27:16;19.40;99.90
47022;DHT22;32779;52.264;6.154;2023-08-01T14:29:42;19.40;99.90
47022;DHT22;32779;52.264;6.154;2023-08-01T14:32:07;19.50;99.90
47022;DHT22;32779;52.264;6.154;2023-08-01T14:34:33;19.50;99.90
47022;DHT22;32779;52.264;6.154;2023-08-01T14:36:58;19.60;99.90
47022;DHT22;32779;52.264;6.154;2023-08-01T14:39:24;19.70;99.90
47022;DHT22;32779;52.264;6.154;2023-08-01T14:41:49;19.70;99.90
47022;DHT22;32779;52.264;6.154;2023-08-01T14:44:15;19.80;99.90
47022;DHT22;32779;52.264;6.154;2023-08-01T14:46:40;19.90;99.90
47022;DHT22;32779;52.264;6.154;2023-08-01T14:49:06;20.00;99.90
47022;DHT22;32779;52.264;6.154;2023-08-01T14:51:32;19.90;99.90
47022;DHT22;32779;52.264;6.154;2023-08-01T14:53:57;19.80;99.90
47022;DHT22;32779;52.264;6.154;2023-08-01T14:56:23;19.50;99.90
47022;DHT22;32779;52.264;6.154;2023-08-01T14:58:48;19.30;99.90
47022;DHT22;32779;52.264;6.154;2023-08-01T15:01:14;18.80;99.90
47022;DHT22;32779;52.264;6.154;2023-08-01T15:03:40;18.60;99.90
47022;DHT22;32779;52.264;6.154;2023-08-01T15:06:06;18.40;99.90
47022;DHT22;32779;52.264;6.154;2023-08-01T15:08:32;18.20;99.90
47022;DHT22;32779;52.264;6.154;2023-08-01T15:11:01;18.10;99.90
47022;DHT22;32779;52.264;6.154;2023-08-01T15:13:27;18.00;99.90
47022;DHT22;32779;52.264;6.154;2023-08-01T15:15:52;17.90;99.90
47022;DHT22;32779;52.264;6.154;2023-08-01T15:18:18;17.90;99.90
47022;DHT22;32779;52.264;6.154;2023-08-01T15:20:44;17.80;99.90
47022;DHT22;32779;52.264;6.154;2023-08-01T15:23:10;17.80;99.90
47022;DHT22;32779;52.264;6.154;2023-08-01T15:25:35;17.80;99.90